sensor_id;sensor_type;location;lat;lon;timestamp;P1;durP1;ratioP1;P2;durP2;ratioP2
5774;SDS011;2913;51.120;6.772;2022-09-16T00:00:54;17.23;;;2.00;;
5774;SDS011;2913;51.120;6.772;2022-09-16T00:03:20;10.70;;;2.63;;
5774;SDS011;2913;51.120;6.772;2022-09-16T00:05:49;11.00;;;1.67;;
5774;SDS011;2913;51.120;6.772;2022-09-16T00:08:21;10.45;;;2.05;;
5774;SDS011;2913;51.120;6.772;2022-09-16T00:10:49;16.00;;;1.80;;
5774;SDS011;2913;51.120;6.772;2022-09-16T00:13:17;11.93;;;2.00;;
5774;SDS011;2913;51.120;6.772;2022-09-16T00:15:46;10.10;;;2.10;;
5774;SDS011;2913;51.120;6.772;2022-09-16T00:18:14;15.75;;;2.05;;
5774;SDS011;2913;51.120;6.772;2022-09-16T00:20:44;10.90;;;1.70;;
5774;SDS011;2913;51.120;6.772;2022-09-16T00:23:10;8.20;;;1.42;;
5774;SDS011;2913;51.120;6.772;2022-09-16T00:25:36;9.55;;;1.50;;
5774;SDS011;2913;51.120;6.772;2022-09-16T00:28:04;13.27;;;1.60;;
5774;SDS011;2913;51.120;6.772;2022-09-16T00:30:30;8.52;;;1.52;;
5774;SDS011;2913;51.120;6.772;2022-09-16T00:32:56;11.23;;;1.45;;
5774;SDS011;2913;51.120;6.772;2022-09-16T00:35:23;8.38;;;1.40;;
5774;SDS011;2913;51.120;6.772;2022-09-16T00:37:49;21.95;;;3.33;;
5774;SDS011;2913;51.120;6.772;2022-09-16T00:40:15;11.95;;;1.70;;
5774;SDS011;2913;51.120;6.772;2022-09-16T00:42:40;7.78;;;1.50;;
5774;SDS011;2913;51.120;6.772;2022-09-16T00:45:19;11.05;;;1.65;;
5774;SDS011;2913;51.120;6.772;2022-09-16T00:47:53;10.13;;;1.45;;
5774;SDS011;2913;51.120;6.772;2022-09-16T00:50:32;15.02;;;1.77;;
5774;SDS011;2913;51.120;6.772;2022-09-16T00:53:04;9.52;;;1.58;;
5774;SDS011;2913;51.120;6.772;2022-09-16T00:55:39;15.07;;;3.63;;
5774;SDS011;2913;51.120;6.772;2022-09-16T00:58:09;14.23;;;1.60;;
5774;SDS011;2913;51.120;6.772;2022-09-16T01:00:36;10.30;;;1.90;;
5774;SDS011;2913;51.120;6.772;2022-09-16T01:03:03;12.43;;;1.65;;
5774;SDS011;2913;51.120;6.772;2022-09-16T01:05:29;13.20;;;2.95;;
5774;SDS011;2913;51.120;6.772;2022-09-16T01:07:58;6.90;;;1.70;;
5774;SDS011;2913;51.120;6.772;2022-09-16T01:10:25;13.48;;;1.70;;
5774;SDS011;2913;51.120;6.772;2022-09-16T01:12:52;18.65;;;1.98;;
5774;SDS011;2913;51.120;6.772;2022-09-16T01:15:21;10.57;;;1.83;;
5774;SDS011;2913;51.120;6.772;2022-09-16T01:18:02;12.07;;;2.08;;
5774;SDS011;2913;51.120;6.772;2022-09-16T01:31:22;15.20;;;1.98;;
5774;SDS011;2913;51.120;6.772;2022-09-16T01:36:34;14.25;;;2.55;;
5774;SDS011;2913;51.120;6.772;2022-09-16T01:55:38;14.55;;;3.70;;
5774;SDS011;2913;51.120;6.772;2022-09-16T01:58:24;13.93;;;2.80;;
5774;SDS011;2913;51.120;6.772;2022-09-16T02:01:02;13.90;;;3.25;;
5774;SDS011;2913;51.120;6.772;2022-09-16T02:03:33;23.40;;;3.33;;
5774;SDS011;2913;51.120;6.772;2022-09-16T02:06:10;15.77;;;2.95;;
5774;SDS011;2913;51.120;6.772;2022-09-16T02:08:42;22.48;;;3.55;;
5774;SDS011;2913;51.120;6.772;2022-09-16T02:11:13;15.82;;;3.42;;
5774;SDS011;2913;51.120;6.772;2022-09-16T02:13:46;14.82;;;3.78;;
5774;SDS011;2913;51.120;6.772;2022-09-16T02:16:25;12.00;;;3.22;;
5774;SDS011;2913;51.120;6.772;2022-09-16T02:19:01;16.63;;;3.47;;
5774;SDS011;2913;51.120;6.772;2022-09-16T02:21:36;11.27;;;3.60;;
5774;SDS011;2913;51.120;6.772;2022-09-16T02:24:04;10.48;;;3.35;;
5774;SDS011;2913;51.120;6.772;2022-09-16T02:26:40;23.80;;;3.58;;
5774;SDS011;2913;51.120;6.772;2022-09-16T02:29:13;28.85;;;3.85;;
5774;SDS011;2913;51.120;6.772;2022-09-16T02:31:45;15.05;;;3.50;;
5774;SDS011;2913;51.120;6.772;2022-09-16T02:34:18;18.50;;;3.88;;
5774;SDS011;2913;51.120;6.772;2022-09-16T02:36:50;21.20;;;4.88;;
5774;SDS011;2913;51.120;6.772;2022-09-16T02:39:27;27.92;;;4.35;;
5774;SDS011;2913;51.120;6.772;2022-09-16T02:41:59;19.30;;;4.82;;
5774;SDS011;2913;51.120;6.772;2022-09-16T02:44:25;21.88;;;4.97;;
5774;SDS011;2913;51.120;6.772;2022-09-16T02:49:57;23.55;;;4.75;;
5774;SDS011;2913;51.120;6.772;2022-09-16T02:53:13;32.70;;;4.93;;
5774;SDS011;2913;51.120;6.772;2022-09-16T02:55:14;19.27;;;4.38;;
5774;SDS011;2913;51.120;6.772;2022-09-16T02:57:48;14.13;;;3.70;;
5774;SDS011;2913;51.120;6.772;2022-09-16T03:00:14;16.88;;;3.78;;
5774;SDS011;2913;51.120;6.772;2022-09-16T03:02:40;15.00;;;3.83;;
5774;SDS011;2913;51.120;6.772;2022-09-16T03:05:06;26.10;;;3.88;;
5774;SDS011;2913;51.120;6.772;2022-09-16T03:07:33;22.55;;;3.80;;
5774;SDS011;2913;51.120;6.772;2022-09-16T03:09:59;15.05;;;4.07;;
5774;SDS011;2913;51.120;6.772;2022-09-16T03:15:03;17.98;;;3.13;;
5774;SDS011;2913;51.120;6.772;2022-09-16T03:22:55;12.20;;;2.90;;
5774;SDS011;2913;51.120;6.772;2022-09-16T03:30:58;14.23;;;3.00;;
5774;SDS011;2913;51.120;6.772;2022-09-16T03:36:28;11.45;;;2.67;;
5774;SDS011;2913;51.120;6.772;2022-09-16T03:39:00;11.25;;;2.22;;
5774;SDS011;2913;51.120;6.772;2022-09-16T03:41:28;12.88;;;2.80;;
5774;SDS011;2913;51.120;6.772;2022-09-16T03:43:56;12.02;;;2.50;;
5774;SDS011;2913;51.120;6.772;2022-09-16T03:46:23;6.78;;;2.55;;
5774;SDS011;2913;51.120;6.772;2022-09-16T03:48:53;11.18;;;2.55;;
5774;SDS011;2913;51.120;6.772;2022-09-16T03:51:24;15.65;;;2.78;;
5774;SDS011;2913;51.120;6.772;2022-09-16T03:53:50;19.88;;;3.50;;
5774;SDS011;2913;51.120;6.772;2022-09-16T03:56:16;19.02;;;3.00;;
5774;SDS011;2913;51.120;6.772;2022-09-16T03:58:42;14.85;;;3.30;;
5774;SDS011;2913;51.120;6.772;2022-09-16T04:01:10;27.17;;;3.30;;
5774;SDS011;2913;51.120;6.772;2022-09-16T04:03:37;11.02;;;2.60;;
5774;SDS011;2913;51.120;6.772;2022-09-16T04:06:03;14.02;;;2.83;;
5774;SDS011;2913;51.120;6.772;2022-09-16T04:08:29;9.60;;;2.92;;
5774;SDS011;2913;51.120;6.772;2022-09-16T04:13:21;8.95;;;2.97;;
5774;SDS011;2913;51.120;6.772;2022-09-16T04:15:48;16.55;;;3.15;;
5774;SDS011;2913;51.120;6.772;2022-09-16T04:18:16;22.20;;;3.22;;
5774;SDS011;2913;51.120;6.772;2022-09-16T04:20:44;19.52;;;2.80;;
5774;SDS011;2913;51.120;6.772;2022-09-16T04:23:09;18.60;;;3.97;;
5774;SDS011;2913;51.120;6.772;2022-09-16T04:25:35;17.85;;;4.20;;
5774;SDS011;2913;51.120;6.772;2022-09-16T04:28:01;33.17;;;4.55;;
5774;SDS011;2913;51.120;6.772;2022-09-16T04:30:26;15.93;;;4.13;;
5774;SDS011;2913;51.120;6.772;2022-09-16T04:32:53;12.75;;;3.20;;
5774;SDS011;2913;51.120;6.772;2022-09-16T04:35:21;19.48;;;3.78;;
5774;SDS011;2913;51.120;6.772;2022-09-16T04:37:50;14.40;;;3.05;;
5774;SDS011;2913;51.120;6.772;2022-09-16T04:40:19;26.83;;;3.40;;
5774;SDS011;2913;51.120;6.772;2022-09-16T04:42:48;13.93;;;3.67;;
5774;SDS011;2913;51.120;6.772;2022-09-16T04:45:14;16.58;;;3.20;;
5774;SDS011;2913;51.120;6.772;2022-09-16T04:47:40;15.38;;;3.47;;
5774;SDS011;2913;51.120;6.772;2022-09-16T04:50:08;10.18;;;3.17;;
5774;SDS011;2913;51.120;6.772;2022-09-16T04:52:39;17.35;;;2.95;;
5774;SDS011;2913;51.120;6.772;2022-09-16T04:55:07;17.02;;;3.00;;
5774;SDS011;2913;51.120;6.772;2022-09-16T04:57:35;21.02;;;3.40;;
5774;SDS011;2913;51.120;6.772;2022-09-16T05:00:03;10.43;;;3.03;;
5774;SDS011;2913;51.120;6.772;2022-09-16T05:02:29;12.07;;;3.30;;
5774;SDS011;2913;51.120;6.772;2022-09-16T05:04:54;19.58;;;2.97;;
5774;SDS011;2913;51.120;6.772;2022-09-16T05:07:20;9.43;;;2.45;;
5774;SDS011;2913;51.120;6.772;2022-09-16T05:09:46;14.48;;;2.72;;
5774;SDS011;2913;51.120;6.772;2022-09-16T05:12:13;15.13;;;2.50;;
5774;SDS011;2913;51.120;6.772;2022-09-16T05:14:41;14.57;;;3.00;;
5774;SDS011;2913;51.120;6.772;2022-09-16T05:17:12;12.65;;;3.05;;
5774;SDS011;2913;51.120;6.772;2022-09-16T05:19:37;14.88;;;3.00;;
5774;SDS011;2913;51.120;6.772;2022-09-16T05:22:03;8.32;;;2.83;;
5774;SDS011;2913;51.120;6.772;2022-09-16T05:24:34;18.60;;;2.80;;
5774;SDS011;2913;51.120;6.772;2022-09-16T05:27:05;9.55;;;2.40;;
5774;SDS011;2913;51.120;6.772;2022-09-16T05:29:30;16.50;;;3.20;;
5774;SDS011;2913;51.120;6.772;2022-09-16T05:31:58;9.75;;;2.60;;
5774;SDS011;2913;51.120;6.772;2022-09-16T05:34:24;11.73;;;2.80;;
5774;SDS011;2913;51.120;6.772;2022-09-16T05:36:55;12.38;;;3.10;;
5774;SDS011;2913;51.120;6.772;2022-09-16T05:39:24;18.48;;;2.90;;
5774;SDS011;2913;51.120;6.772;2022-09-16T05:41:52;20.13;;;2.95;;
5774;SDS011;2913;51.120;6.772;2022-09-16T05:44:19;13.23;;;2.70;;
5774;SDS011;2913;51.120;6.772;2022-09-16T05:46:45;20.17;;;2.70;;
5774;SDS011;2913;51.120;6.772;2022-09-16T05:49:15;17.17;;;2.78;;
5774;SDS011;2913;51.120;6.772;2022-09-16T05:51:44;16.65;;;2.80;;
5774;SDS011;2913;51.120;6.772;2022-09-16T05:54:13;13.95;;;2.40;;
5774;SDS011;2913;51.120;6.772;2022-09-16T05:56:38;17.65;;;3.00;;
5774;SDS011;2913;51.120;6.772;2022-09-16T05:59:06;17.20;;;2.75;;
5774;SDS011;2913;51.120;6.772;2022-09-16T06:01:35;26.58;;;2.97;;
5774;SDS011;2913;51.120;6.772;2022-09-16T06:04:05;5.68;;;2.60;;
5774;SDS011;2913;51.120;6.772;2022-09-16T06:06:33;13.27;;;2.38;;
5774;SDS011;2913;51.120;6.772;2022-09-16T06:09:09;11.55;;;2.70;;
5774;SDS011;2913;51.120;6.772;2022-09-16T06:11:43;17.27;;;3.13;;
5774;SDS011;2913;51.120;6.772;2022-09-16T06:14:10;16.45;;;2.92;;
5774;SDS011;2913;51.120;6.772;2022-09-16T06:16:37;12.38;;;2.35;;
5774;SDS011;2913;51.120;6.772;2022-09-16T06:19:07;12.48;;;2.55;;
5774;SDS011;2913;51.120;6.772;2022-09-16T06:21:37;17.23;;;2.60;;
5774;SDS011;2913;51.120;6.772;2022-09-16T06:24:02;10.82;;;2.85;;
5774;SDS011;2913;51.120;6.772;2022-09-16T06:26:32;14.43;;;2.75;;
5774;SDS011;2913;51.120;6.772;2022-09-16T06:29:00;19.00;;;3.53;;
5774;SDS011;2913;51.120;6.772;2022-09-16T06:31:29;21.92;;;2.60;;
5774;SDS011;2913;51.120;6.772;2022-09-16T06:33:56;29.92;;;4.05;;
5774;SDS011;2913;51.120;6.772;2022-09-16T06:36:27;13.00;;;3.33;;
5774;SDS011;2913;51.120;6.772;2022-09-16T06:38:55;17.92;;;2.58;;
5774;SDS011;2913;51.120;6.772;2022-09-16T06:41:21;14.48;;;2.65;;
5774;SDS011;2913;51.120;6.772;2022-09-16T06:43:50;12.27;;;2.45;;
5774;SDS011;2913;51.120;6.772;2022-09-16T06:46:20;17.33;;;2.83;;
5774;SDS011;2913;51.120;6.772;2022-09-16T06:48:53;10.13;;;2.40;;
5774;SDS011;2913;51.120;6.772;2022-09-16T06:51:23;15.93;;;2.47;;
5774;SDS011;2913;51.120;6.772;2022-09-16T06:53:50;18.10;;;4.03;;
5774;SDS011;2913;51.120;6.772;2022-09-16T06:56:19;21.67;;;2.80;;
5774;SDS011;2913;51.120;6.772;2022-09-16T06:58:50;11.60;;;2.80;;
5774;SDS011;2913;51.120;6.772;2022-09-16T07:01:22;15.88;;;2.50;;
5774;SDS011;2913;51.120;6.772;2022-09-16T07:03:50;15.57;;;2.30;;
5774;SDS011;2913;51.120;6.772;2022-09-16T07:06:17;18.25;;;2.83;;
5774;SDS011;2913;51.120;6.772;2022-09-16T07:08:44;16.45;;;2.72;;
5774;SDS011;2913;51.120;6.772;2022-09-16T07:11:14;15.18;;;2.72;;
5774;SDS011;2913;51.120;6.772;2022-09-16T07:13:42;20.77;;;3.08;;
5774;SDS011;2913;51.120;6.772;2022-09-16T07:16:10;34.28;;;4.00;;
5774;SDS011;2913;51.120;6.772;2022-09-16T07:18:39;18.55;;;2.80;;
5774;SDS011;2913;51.120;6.772;2022-09-16T07:21:07;22.00;;;2.85;;
5774;SDS011;2913;51.120;6.772;2022-09-16T07:23:39;12.57;;;2.28;;
5774;SDS011;2913;51.120;6.772;2022-09-16T07:26:06;27.98;;;2.88;;
5774;SDS011;2913;51.120;6.772;2022-09-16T07:28:34;12.60;;;2.47;;
5774;SDS011;2913;51.120;6.772;2022-09-16T07:31:03;29.60;;;4.60;;
5774;SDS011;2913;51.120;6.772;2022-09-16T07:33:31;14.05;;;2.47;;
5774;SDS011;2913;51.120;6.772;2022-09-16T07:35:59;16.80;;;3.28;;
5774;SDS011;2913;51.120;6.772;2022-09-16T07:38:25;11.63;;;2.13;;
5774;SDS011;2913;51.120;6.772;2022-09-16T07:40:53;15.90;;;2.63;;
5774;SDS011;2913;51.120;6.772;2022-09-16T07:43:19;8.18;;;2.45;;
5774;SDS011;2913;51.120;6.772;2022-09-16T07:45:45;9.75;;;2.47;;
5774;SDS011;2913;51.120;6.772;2022-09-16T07:48:11;18.67;;;3.80;;
5774;SDS011;2913;51.120;6.772;2022-09-16T07:50:39;16.10;;;2.47;;
5774;SDS011;2913;51.120;6.772;2022-09-16T07:53:05;12.95;;;2.30;;
5774;SDS011;2913;51.120;6.772;2022-09-16T07:55:30;20.63;;;2.25;;
5774;SDS011;2913;51.120;6.772;2022-09-16T07:57:58;16.20;;;1.90;;
5774;SDS011;2913;51.120;6.772;2022-09-16T08:00:24;13.02;;;1.75;;
5774;SDS011;2913;51.120;6.772;2022-09-16T08:02:54;16.65;;;3.47;;
5774;SDS011;2913;51.120;6.772;2022-09-16T08:05:20;16.70;;;2.15;;
5774;SDS011;2913;51.120;6.772;2022-09-16T08:07:46;10.73;;;1.90;;
5774;SDS011;2913;51.120;6.772;2022-09-16T08:10:12;11.82;;;2.25;;
5774;SDS011;2913;51.120;6.772;2022-09-16T08:12:37;6.47;;;1.98;;
5774;SDS011;2913;51.120;6.772;2022-09-16T08:15:03;10.43;;;2.53;;
5774;SDS011;2913;51.120;6.772;2022-09-16T08:17:29;10.30;;;2.10;;
5774;SDS011;2913;51.120;6.772;2022-09-16T08:19:54;12.40;;;2.10;;
5774;SDS011;2913;51.120;6.772;2022-09-16T08:22:20;13.90;;;2.40;;
5774;SDS011;2913;51.120;6.772;2022-09-16T08:24:48;16.05;;;2.10;;
5774;SDS011;2913;51.120;6.772;2022-09-16T08:27:16;19.33;;;2.42;;
5774;SDS011;2913;51.120;6.772;2022-09-16T08:29:41;7.40;;;1.90;;
5774;SDS011;2913;51.120;6.772;2022-09-16T08:32:09;8.27;;;1.50;;
5774;SDS011;2913;51.120;6.772;2022-09-16T08:34:37;8.40;;;1.60;;
5774;SDS011;2913;51.120;6.772;2022-09-16T08:37:05;17.75;;;2.10;;
5774;SDS011;2913;51.120;6.772;2022-09-16T08:39:36;16.55;;;1.83;;
5774;SDS011;2913;51.120;6.772;2022-09-16T08:47:31;6.30;;;1.55;;
5774;SDS011;2913;51.120;6.772;2022-09-16T08:50:03;7.75;;;1.67;;
5774;SDS011;2913;51.120;6.772;2022-09-16T08:52:36;8.68;;;1.40;;
5774;SDS011;2913;51.120;6.772;2022-09-16T08:55:14;13.00;;;1.95;;
5774;SDS011;2913;51.120;6.772;2022-09-16T08:57:59;5.45;;;1.33;;
5774;SDS011;2913;51.120;6.772;2022-09-16T09:00:48;12.02;;;1.80;;
5774;SDS011;2913;51.120;6.772;2022-09-16T09:06:00;8.75;;;1.17;;
5774;SDS011;2913;51.120;6.772;2022-09-16T09:08:53;7.95;;;1.33;;
5774;SDS011;2913;51.120;6.772;2022-09-16T09:30:37;12.52;;;1.58;;
5774;SDS011;2913;51.120;6.772;2022-09-16T09:33:20;5.45;;;0.88;;
5774;SDS011;2913;51.120;6.772;2022-09-16T09:36:06;14.82;;;1.20;;
5774;SDS011;2913;51.120;6.772;2022-09-16T09:38:50;9.45;;;0.95;;
5774;SDS011;2913;51.120;6.772;2022-09-16T09:41:31;9.55;;;1.20;;
5774;SDS011;2913;51.120;6.772;2022-09-16T09:47:10;9.57;;;0.93;;
5774;SDS011;2913;51.120;6.772;2022-09-16T09:52:18;7.68;;;0.90;;
5774;SDS011;2913;51.120;6.772;2022-09-16T09:54:50;6.60;;;1.77;;
5774;SDS011;2913;51.120;6.772;2022-09-16T09:57:19;5.35;;;0.77;;
5774;SDS011;2913;51.120;6.772;2022-09-16T09:59:54;7.97;;;1.83;;
5774;SDS011;2913;51.120;6.772;2022-09-16T10:02:43;11.05;;;0.98;;
5774;SDS011;2913;51.120;6.772;2022-09-16T10:05:26;9.57;;;1.00;;
5774;SDS011;2913;51.120;6.772;2022-09-16T10:08:01;4.50;;;0.68;;
5774;SDS011;2913;51.120;6.772;2022-09-16T10:10:35;16.10;;;1.33;;
5774;SDS011;2913;51.120;6.772;2022-09-16T10:13:15;7.38;;;0.90;;
5774;SDS011;2913;51.120;6.772;2022-09-16T10:15:43;6.50;;;0.98;;
5774;SDS011;2913;51.120;6.772;2022-09-16T10:18:20;9.77;;;0.73;;
5774;SDS011;2913;51.120;6.772;2022-09-16T10:21:01;6.53;;;0.80;;
5774;SDS011;2913;51.120;6.772;2022-09-16T10:23:35;9.52;;;1.05;;
5774;SDS011;2913;51.120;6.772;2022-09-16T10:28:59;7.90;;;0.95;;
5774;SDS011;2913;51.120;6.772;2022-09-16T10:31:33;10.32;;;0.85;;
5774;SDS011;2913;51.120;6.772;2022-09-16T10:34:03;13.85;;;1.35;;
5774;SDS011;2913;51.120;6.772;2022-09-16T10:36:37;5.75;;;1.10;;
5774;SDS011;2913;51.120;6.772;2022-09-16T10:39:03;8.60;;;1.13;;
5774;SDS011;2913;51.120;6.772;2022-09-16T10:41:41;9.32;;;0.98;;
5774;SDS011;2913;51.120;6.772;2022-09-16T10:44:14;6.43;;;0.90;;
5774;SDS011;2913;51.120;6.772;2022-09-16T10:47:46;11.82;;;1.33;;
5774;SDS011;2913;51.120;6.772;2022-09-16T10:49:43;13.02;;;1.27;;
5774;SDS011;2913;51.120;6.772;2022-09-16T10:52:17;3.58;;;0.82;;
5774;SDS011;2913;51.120;6.772;2022-09-16T10:54:47;5.45;;;0.90;;
5774;SDS011;2913;51.120;6.772;2022-09-16T10:57:33;7.43;;;0.75;;
5774;SDS011;2913;51.120;6.772;2022-09-16T11:00:10;8.75;;;1.00;;
5774;SDS011;2913;51.120;6.772;2022-09-16T11:02:54;2.58;;;0.68;;
5774;SDS011;2913;51.120;6.772;2022-09-16T11:05:38;5.80;;;0.75;;
5774;SDS011;2913;51.120;6.772;2022-09-16T11:11:30;7.47;;;0.95;;
5774;SDS011;2913;51.120;6.772;2022-09-16T11:19:47;7.13;;;0.80;;
5774;SDS011;2913;51.120;6.772;2022-09-16T11:23:12;6.70;;;0.80;;
5774;SDS011;2913;51.120;6.772;2022-09-16T11:25:43;6.47;;;0.80;;
5774;SDS011;2913;51.120;6.772;2022-09-16T11:34:09;8.68;;;0.90;;
5774;SDS011;2913;51.120;6.772;2022-09-16T11:42:46;5.68;;;0.90;;
5774;SDS011;2913;51.120;6.772;2022-09-16T11:53:10;47.00;;;1.33;;
5774;SDS011;2913;51.120;6.772;2022-09-16T12:00:50;8.85;;;1.00;;
5774;SDS011;2913;51.120;6.772;2022-09-16T12:05:59;9.07;;;1.13;;
5774;SDS011;2913;51.120;6.772;2022-09-16T12:08:37;6.03;;;0.90;;
5774;SDS011;2913;51.120;6.772;2022-09-16T12:14:19;8.38;;;0.98;;
5774;SDS011;2913;51.120;6.772;2022-09-16T12:16:58;8.50;;;0.98;;
5774;SDS011;2913;51.120;6.772;2022-09-16T12:22:38;4.07;;;0.60;;
5774;SDS011;2913;51.120;6.772;2022-09-16T12:24:48;4.47;;;0.95;;
5774;SDS011;2913;51.120;6.772;2022-09-16T12:30:18;7.47;;;0.90;;
5774;SDS011;2913;51.120;6.772;2022-09-16T12:33:09;2.65;;;0.80;;
5774;SDS011;2913;51.120;6.772;2022-09-16T12:35:56;3.85;;;0.73;;
5774;SDS011;2913;51.120;6.772;2022-09-16T12:38:32;3.17;;;0.88;;
5774;SDS011;2913;51.120;6.772;2022-09-16T12:57:41;4.13;;;1.15;;
5774;SDS011;2913;51.120;6.772;2022-09-16T13:00:49;5.05;;;0.90;;
5774;SDS011;2913;51.120;6.772;2022-09-16T13:03:25;2.83;;;1.02;;
5774;SDS011;2913;51.120;6.772;2022-09-16T13:05:53;1.35;;;0.60;;
5774;SDS011;2913;51.120;6.772;2022-09-16T13:10:57;4.68;;;0.90;;
5774;SDS011;2913;51.120;6.772;2022-09-16T13:13:33;8.07;;;0.93;;
5774;SDS011;2913;51.120;6.772;2022-09-16T13:16:02;6.18;;;1.38;;
5774;SDS011;2913;51.120;6.772;2022-09-16T13:21:26;3.90;;;1.20;;
5774;SDS011;2913;51.120;6.772;2022-09-16T13:24:00;9.38;;;1.00;;
5774;SDS011;2913;51.120;6.772;2022-09-16T13:26:39;8.00;;;0.93;;
5774;SDS011;2913;51.120;6.772;2022-09-16T13:35:34;6.13;;;0.88;;
5774;SDS011;2913;51.120;6.772;2022-09-16T13:38:09;4.07;;;0.80;;
5774;SDS011;2913;51.120;6.772;2022-09-16T13:40:52;8.35;;;0.70;;
5774;SDS011;2913;51.120;6.772;2022-09-16T13:46:25;6.93;;;1.30;;
5774;SDS011;2913;51.120;6.772;2022-09-16T13:48:54;11.70;;;1.23;;
5774;SDS011;2913;51.120;6.772;2022-09-16T13:51:31;6.80;;;0.88;;
5774;SDS011;2913;51.120;6.772;2022-09-16T13:54:02;3.53;;;0.85;;
5774;SDS011;2913;51.120;6.772;2022-09-16T14:12:57;6.00;;;1.00;;
5774;SDS011;2913;51.120;6.772;2022-09-16T14:15:29;9.13;;;1.48;;
5774;SDS011;2913;51.120;6.772;2022-09-16T14:18:00;11.83;;;1.47;;
5774;SDS011;2913;51.120;6.772;2022-09-16T14:20:28;5.88;;;1.13;;
5774;SDS011;2913;51.120;6.772;2022-09-16T14:23:03;10.60;;;1.23;;
5774;SDS011;2913;51.120;6.772;2022-09-16T14:25:37;4.30;;;0.88;;
5774;SDS011;2913;51.120;6.772;2022-09-16T14:28:09;7.25;;;1.00;;
5774;SDS011;2913;51.120;6.772;2022-09-16T14:31:01;5.90;;;1.50;;
5774;SDS011;2913;51.120;6.772;2022-09-16T14:33:34;5.57;;;1.15;;
5774;SDS011;2913;51.120;6.772;2022-09-16T14:36:25;6.72;;;0.88;;
5774;SDS011;2913;51.120;6.772;2022-09-16T14:41:28;5.55;;;0.90;;
5774;SDS011;2913;51.120;6.772;2022-09-16T14:49:18;11.73;;;0.93;;
5774;SDS011;2913;51.120;6.772;2022-09-16T14:51:50;6.28;;;0.77;;
5774;SDS011;2913;51.120;6.772;2022-09-16T14:54:26;4.22;;;0.60;;
5774;SDS011;2913;51.120;6.772;2022-09-16T14:59:47;4.55;;;0.65;;
5774;SDS011;2913;51.120;6.772;2022-09-16T15:02:22;5.97;;;0.80;;
5774;SDS011;2913;51.120;6.772;2022-09-16T15:04:52;8.93;;;1.00;;
5774;SDS011;2913;51.120;6.772;2022-09-16T15:07:31;10.40;;;0.73;;
5774;SDS011;2913;51.120;6.772;2022-09-16T15:10:08;8.75;;;1.10;;
5774;SDS011;2913;51.120;6.772;2022-09-16T15:12:57;10.15;;;0.95;;
5774;SDS011;2913;51.120;6.772;2022-09-16T15:15:25;3.35;;;0.77;;
5774;SDS011;2913;51.120;6.772;2022-09-16T15:20:24;24.83;;;2.42;;
5774;SDS011;2913;51.120;6.772;2022-09-16T15:22:53;7.75;;;1.00;;
5774;SDS011;2913;51.120;6.772;2022-09-16T15:25:22;2.45;;;0.80;;
5774;SDS011;2913;51.120;6.772;2022-09-16T15:28:02;7.80;;;0.95;;
5774;SDS011;2913;51.120;6.772;2022-09-16T15:30:43;5.28;;;0.82;;
5774;SDS011;2913;51.120;6.772;2022-09-16T15:33:22;7.93;;;1.17;;
5774;SDS011;2913;51.120;6.772;2022-09-16T15:35:48;9.93;;;0.93;;
5774;SDS011;2913;51.120;6.772;2022-09-16T15:38:20;3.25;;;0.77;;
5774;SDS011;2913;51.120;6.772;2022-09-16T15:43:39;6.53;;;1.05;;
5774;SDS011;2913;51.120;6.772;2022-09-16T15:46:18;7.80;;;0.90;;
5774;SDS011;2913;51.120;6.772;2022-09-16T15:48:54;5.82;;;0.80;;
5774;SDS011;2913;51.120;6.772;2022-09-16T15:53:58;8.32;;;1.15;;
5774;SDS011;2913;51.120;6.772;2022-09-16T15:56:36;8.57;;;0.88;;
5774;SDS011;2913;51.120;6.772;2022-09-16T15:59:20;8.57;;;1.02;;
5774;SDS011;2913;51.120;6.772;2022-09-16T16:01:52;13.25;;;1.17;;
5774;SDS011;2913;51.120;6.772;2022-09-16T16:04:30;10.35;;;1.40;;
5774;SDS011;2913;51.120;6.772;2022-09-16T16:06:58;8.07;;;0.85;;
5774;SDS011;2913;51.120;6.772;2022-09-16T16:12:02;10.88;;;1.10;;
5774;SDS011;2913;51.120;6.772;2022-09-16T16:14:30;10.93;;;1.40;;
5774;SDS011;2913;51.120;6.772;2022-09-16T16:17:03;9.07;;;1.20;;
5774;SDS011;2913;51.120;6.772;2022-09-16T16:19:44;11.07;;;1.50;;
5774;SDS011;2913;51.120;6.772;2022-09-16T16:22:11;6.30;;;1.30;;
5774;SDS011;2913;51.120;6.772;2022-09-16T16:24:39;6.47;;;1.23;;
5774;SDS011;2913;51.120;6.772;2022-09-16T16:27:08;8.35;;;1.33;;
5774;SDS011;2913;51.120;6.772;2022-09-16T16:29:36;5.80;;;1.00;;
5774;SDS011;2913;51.120;6.772;2022-09-16T16:34:31;9.23;;;1.13;;
5774;SDS011;2913;51.120;6.772;2022-09-16T16:37:01;3.38;;;0.95;;
5774;SDS011;2913;51.120;6.772;2022-09-16T16:39:30;6.63;;;1.15;;
5774;SDS011;2913;51.120;6.772;2022-09-16T16:41:58;9.93;;;1.88;;
5774;SDS011;2913;51.120;6.772;2022-09-16T16:44:24;9.00;;;1.60;;
5774;SDS011;2913;51.120;6.772;2022-09-16T16:46:53;9.05;;;1.13;;
5774;SDS011;2913;51.120;6.772;2022-09-16T16:49:21;11.90;;;1.00;;
5774;SDS011;2913;51.120;6.772;2022-09-16T16:51:48;10.75;;;1.30;;
5774;SDS011;2913;51.120;6.772;2022-09-16T16:54:19;15.48;;;1.35;;
5774;SDS011;2913;51.120;6.772;2022-09-16T16:56:48;10.00;;;1.05;;
5774;SDS011;2913;51.120;6.772;2022-09-16T16:59:19;17.88;;;2.47;;
5774;SDS011;2913;51.120;6.772;2022-09-16T17:01:49;11.68;;;1.23;;
5774;SDS011;2913;51.120;6.772;2022-09-16T17:04:16;16.23;;;1.80;;
5774;SDS011;2913;51.120;6.772;2022-09-16T17:06:42;18.17;;;1.60;;
5774;SDS011;2913;51.120;6.772;2022-09-16T17:09:09;23.23;;;1.38;;
5774;SDS011;2913;51.120;6.772;2022-09-16T17:11:35;12.70;;;1.20;;
5774;SDS011;2913;51.120;6.772;2022-09-16T17:14:13;13.68;;;1.23;;
5774;SDS011;2913;51.120;6.772;2022-09-16T17:16:40;15.05;;;1.45;;
5774;SDS011;2913;51.120;6.772;2022-09-16T17:19:06;13.95;;;1.38;;
5774;SDS011;2913;51.120;6.772;2022-09-16T17:21:32;14.40;;;1.67;;
5774;SDS011;2913;51.120;6.772;2022-09-16T17:23:58;14.38;;;1.60;;
5774;SDS011;2913;51.120;6.772;2022-09-16T17:26:27;13.88;;;1.98;;
5774;SDS011;2913;51.120;6.772;2022-09-16T17:28:53;9.68;;;1.30;;
5774;SDS011;2913;51.120;6.772;2022-09-16T17:31:22;13.55;;;1.80;;
5774;SDS011;2913;51.120;6.772;2022-09-16T17:33:57;8.27;;;1.25;;
5774;SDS011;2913;51.120;6.772;2022-09-16T17:36:27;14.85;;;1.33;;
5774;SDS011;2913;51.120;6.772;2022-09-16T17:39:13;9.55;;;1.20;;
5774;SDS011;2913;51.120;6.772;2022-09-16T17:41:43;18.75;;;1.70;;
5774;SDS011;2913;51.120;6.772;2022-09-16T17:44:16;12.80;;;1.50;;
5774;SDS011;2913;51.120;6.772;2022-09-16T17:46:42;15.77;;;1.70;;
5774;SDS011;2913;51.120;6.772;2022-09-16T17:49:14;9.27;;;1.17;;
5774;SDS011;2913;51.120;6.772;2022-09-16T17:51:45;10.07;;;1.42;;
5774;SDS011;2913;51.120;6.772;2022-09-16T17:54:16;10.38;;;1.42;;
5774;SDS011;2913;51.120;6.772;2022-09-16T17:56:41;8.73;;;1.40;;
5774;SDS011;2913;51.120;6.772;2022-09-16T17:59:07;14.77;;;1.63;;
5774;SDS011;2913;51.120;6.772;2022-09-16T18:01:36;11.80;;;1.75;;
5774;SDS011;2913;51.120;6.772;2022-09-16T18:04:04;4.75;;;1.75;;
5774;SDS011;2913;51.120;6.772;2022-09-16T18:06:31;10.82;;;1.83;;
5774;SDS011;2913;51.120;6.772;2022-09-16T18:09:00;9.90;;;2.67;;
5774;SDS011;2913;51.120;6.772;2022-09-16T18:11:27;13.27;;;1.92;;
5774;SDS011;2913;51.120;6.772;2022-09-16T18:13:56;14.57;;;1.80;;
5774;SDS011;2913;51.120;6.772;2022-09-16T18:16:25;10.82;;;1.65;;
5774;SDS011;2913;51.120;6.772;2022-09-16T18:18:53;20.45;;;2.85;;
5774;SDS011;2913;51.120;6.772;2022-09-16T18:21:20;8.77;;;1.48;;
5774;SDS011;2913;51.120;6.772;2022-09-16T18:23:50;9.15;;;1.58;;
5774;SDS011;2913;51.120;6.772;2022-09-16T18:26:20;12.80;;;2.80;;
5774;SDS011;2913;51.120;6.772;2022-09-16T18:28:49;12.70;;;1.60;;
5774;SDS011;2913;51.120;6.772;2022-09-16T18:31:19;6.13;;;1.30;;
5774;SDS011;2913;51.120;6.772;2022-09-16T18:33:49;7.25;;;1.65;;
5774;SDS011;2913;51.120;6.772;2022-09-16T18:36:17;12.60;;;1.70;;
5774;SDS011;2913;51.120;6.772;2022-09-16T18:38:43;10.45;;;1.70;;
5774;SDS011;2913;51.120;6.772;2022-09-16T18:41:17;14.70;;;2.58;;
5774;SDS011;2913;51.120;6.772;2022-09-16T18:43:45;10.45;;;2.00;;
5774;SDS011;2913;51.120;6.772;2022-09-16T18:48:44;17.98;;;2.00;;
5774;SDS011;2913;51.120;6.772;2022-09-16T18:51:15;12.10;;;1.58;;
5774;SDS011;2913;51.120;6.772;2022-09-16T18:53:46;21.58;;;2.15;;
5774;SDS011;2913;51.120;6.772;2022-09-16T18:56:14;11.57;;;1.48;;
5774;SDS011;2913;51.120;6.772;2022-09-16T18:58:44;8.43;;;1.38;;